createdAt,value
2023-02-27T00:00:15.291Z,20.67
2023-02-27T00:01:16.905Z,31.27
2023-02-27T00:02:18.481Z,20.90
2023-02-27T00:03:20.135Z,22.17
2023-02-27T00:04:21.754Z,24.83
2023-02-27T00:05:23.363Z,25.17
2023-02-27T00:06:24.977Z,25.53
2023-02-27T00:07:28.724Z,20.67
2023-02-27T00:08:30.316Z,23.70
2023-02-27T00:09:31.860Z,30.07
2023-02-27T00:10:33.440Z,28.57
2023-02-27T00:11:34.975Z,38.17
2023-02-27T00:12:38.040Z,29.10
2023-02-27T00:13:40.053Z,20.83
2023-02-27T00:14:41.559Z,24.37
2023-02-27T00:15:46.967Z,31.63
2023-02-27T00:16:48.598Z,26.07
2023-02-27T00:17:50.332Z,23.30
2023-02-27T00:18:51.906Z,30.47
2023-02-27T00:19:53.460Z,26.07
2023-02-27T00:20:54.970Z,20.40
2023-02-27T00:21:56.558Z,23.97
2023-02-27T00:22:58.175Z,25.07
2023-02-27T00:23:59.777Z,27.57
2023-02-27T00:25:01.356Z,21.67
2023-02-27T00:26:02.979Z,28.40
2023-02-27T00:27:04.520Z,27.07
2023-02-27T00:28:06.099Z,23.50
2023-02-27T00:29:08.005Z,34.13
2023-02-27T00:30:12.844Z,26.90
2023-02-27T00:31:14.513Z,29.13
2023-02-27T00:32:16.147Z,22.30
2023-02-27T00:33:17.778Z,27.07
2023-02-27T00:34:19.338Z,26.77
2023-02-27T00:35:21.747Z,24.37
2023-02-27T00:36:23.515Z,31.90
2023-02-27T00:37:25.077Z,17.63
2023-02-27T00:38:26.984Z,23.80
2023-02-27T00:39:28.488Z,27.33
2023-02-27T00:40:30.158Z,29.57
2023-02-27T00:41:31.731Z,21.80
2023-02-27T00:42:33.920Z,26.27
2023-02-27T00:43:35.645Z,28.27
2023-02-27T00:44:38.553Z,22.83
2023-02-27T00:45:40.083Z,25.07
2023-02-27T00:46:41.700Z,26.80
2023-02-27T00:47:43.595Z,22.87
2023-02-27T00:48:45.191Z,17.77
2023-02-27T00:49:46.706Z,22.97
2023-02-27T00:50:50.424Z,19.83
2023-02-27T00:51:52.668Z,28.60
2023-02-27T00:52:54.227Z,34.73
2023-02-27T00:53:56.179Z,28.67
2023-02-27T00:54:57.697Z,17.73
2023-02-27T00:55:59.201Z,24.87
2023-02-27T00:57:00.775Z,26.80
2023-02-27T00:58:02.337Z,26.20
2023-02-27T00:59:04.445Z,19.10
2023-02-27T01:00:08.476Z,25.00
2023-02-27T01:01:10.042Z,26.13
2023-02-27T01:02:11.676Z,25.10
2023-02-27T01:03:13.229Z,19.27
2023-02-27T01:04:14.983Z,16.67
2023-02-27T01:05:16.726Z,23.80
2023-02-27T01:06:18.292Z,29.00
2023-02-27T01:07:19.932Z,24.87
2023-02-27T01:08:21.540Z,28.10
2023-02-27T01:09:25.003Z,20.83
2023-02-27T01:10:26.587Z,27.10
2023-02-27T01:11:28.751Z,21.17
2023-02-27T01:12:30.292Z,24.70
2023-02-27T01:13:32.123Z,23.43
2023-02-27T01:14:33.683Z,24.97
2023-02-27T01:15:35.342Z,27.57
2023-02-27T01:16:36.962Z,26.37
2023-02-27T01:17:38.713Z,20.40
2023-02-27T01:18:40.650Z,20.23
2023-02-27T01:19:42.296Z,24.77
2023-02-27T01:20:43.869Z,21.80
2023-02-27T01:21:45.773Z,29.73
2023-02-27T01:22:47.439Z,33.33
2023-02-27T01:23:49.655Z,25.87
2023-02-27T01:24:51.248Z,25.00
2023-02-27T01:25:52.812Z,33.10
2023-02-27T01:26:54.331Z,28.30
2023-02-27T01:27:55.859Z,25.73
2023-02-27T01:28:57.422Z,27.10
2023-02-27T01:29:58.980Z,22.43
2023-02-27T01:31:00.584Z,25.77
2023-02-27T01:32:02.361Z,19.10
2023-02-27T01:33:04.126Z,17.07
2023-02-27T01:34:05.691Z,21.23
2023-02-27T01:35:07.638Z,28.30
2023-02-27T01:36:09.817Z,20.23
2023-02-27T01:37:11.391Z,24.70
2023-02-27T01:38:13.025Z,35.10
2023-02-27T01:39:14.661Z,18.67
2023-02-27T01:40:16.245Z,18.87
2023-02-27T01:41:17.962Z,29.43
2023-02-27T01:42:24.058Z,25.17
2023-02-27T01:43:25.645Z,20.30
2023-02-27T01:44:30.065Z,33.63
2023-02-27T01:45:42.632Z,26.37
2023-02-27T01:46:44.624Z,25.77
2023-02-27T01:47:50.079Z,18.73
2023-02-27T01:48:55.665Z,27.87
2023-02-27T01:49:57.321Z,25.30
2023-02-27T01:51:13.932Z,22.43
2023-02-27T01:52:16.385Z,23.67
2023-02-27T01:53:19.569Z,23.00
2023-02-27T01:54:24.875Z,25.23
2023-02-27T01:55:29.366Z,25.87
2023-02-27T01:56:32.342Z,23.57
2023-02-27T01:57:35.068Z,21.27
2023-02-27T01:58:37.594Z,24.37
2023-02-27T01:59:41.813Z,34.53
2023-02-27T02:00:43.742Z,35.47
2023-02-27T02:01:46.018Z,24.57
2023-02-27T02:02:58.681Z,23.13
2023-02-27T02:04:13.260Z,25.33
2023-02-27T02:05:15.134Z,32.50
2023-02-27T02:06:16.908Z,22.77
2023-02-27T02:07:21.220Z,33.00
2023-02-27T02:08:26.832Z,29.83
2023-02-27T02:09:29.686Z,12.90
2023-02-27T02:10:32.962Z,10.77
2023-02-27T02:11:34.602Z,12.30
2023-02-27T02:12:38.419Z,4.30
2023-02-27T02:13:41.730Z,3.03
2023-02-27T02:14:43.845Z,1.47
2023-02-27T02:15:58.973Z,1.03
2023-02-27T02:17:03.413Z,0.57
2023-02-27T02:18:14.760Z,1.00
2023-02-27T02:19:54.672Z,2.07
2023-02-27T02:21:14.970Z,2.63
2023-02-27T02:22:37.539Z,3.73
2023-02-27T02:23:50.488Z,6.80
2023-02-27T02:25:13.380Z,3.37
2023-02-27T02:26:33.216Z,5.10
2023-02-27T02:28:07.278Z,5.23
2023-02-27T02:29:44.027Z,9.67
2023-02-27T02:31:27.315Z,4.77
2023-02-27T02:32:50.739Z,6.03
2023-02-27T02:34:11.024Z,4.13
2023-02-27T02:35:15.309Z,2.97
2023-02-27T02:36:50.367Z,3.03
2023-02-27T02:38:00.619Z,3.70
2023-02-27T02:39:04.876Z,3.80
2023-02-27T02:40:06.568Z,3.33
2023-02-27T02:41:13.907Z,4.53
2023-02-27T02:42:27.060Z,3.47
2023-02-27T02:43:41.384Z,4.67
2023-02-27T02:45:10.672Z,3.40
2023-02-27T02:46:18.286Z,3.43
2023-02-27T02:47:31.340Z,3.93
2023-02-27T02:48:52.911Z,3.50
2023-02-27T02:49:54.470Z,3.80
2023-02-27T02:51:30.623Z,3.13
2023-02-27T02:52:59.353Z,2.53
2023-02-27T02:54:09.395Z,5.53
2023-02-27T02:55:34.549Z,2.23
2023-02-27T02:56:40.542Z,3.70
2023-02-27T02:57:59.994Z,3.27
2023-02-27T02:59:28.997Z,3.07
2023-02-27T03:00:35.953Z,4.50
2023-02-27T03:01:49.256Z,4.40
2023-02-27T03:03:06.306Z,5.20
2023-02-27T03:04:20.533Z,3.37
2023-02-27T03:05:27.365Z,2.77
2023-02-27T03:06:32.398Z,2.47
2023-02-27T03:07:37.797Z,2.30
2023-02-27T03:08:55.631Z,3.93
2023-02-27T03:10:03.031Z,2.03
2023-02-27T03:11:05.597Z,5.47
2023-02-27T03:12:10.981Z,2.53
2023-02-27T03:13:22.515Z,2.47
2023-02-27T03:14:50.816Z,2.53
2023-02-27T03:16:01.374Z,2.90
2023-02-27T03:17:10.478Z,3.43
2023-02-27T03:18:24.526Z,2.73
2023-02-27T03:19:34.147Z,1.23
2023-02-27T03:20:43.123Z,2.23
2023-02-27T03:21:56.923Z,2.50
2023-02-27T03:23:08.750Z,3.03
2023-02-27T03:24:16.999Z,1.80
2023-02-27T03:25:20.590Z,3.87
2023-02-27T03:26:30.286Z,1.67
2023-02-27T03:27:37.941Z,1.73
2023-02-27T03:28:44.814Z,2.70
2023-02-27T03:30:09.031Z,3.37
2023-02-27T03:31:23.906Z,5.10
2023-02-27T03:32:52.936Z,1.90
2023-02-27T03:34:01.497Z,2.13
2023-02-27T03:35:07.168Z,1.20
2023-02-27T03:36:47.438Z,1.80
2023-02-27T03:38:01.327Z,1.57
2023-02-27T03:39:30.284Z,1.70
2023-02-27T03:40:37.780Z,2.07
2023-02-27T03:41:52.038Z,4.00
2023-02-27T03:43:02.654Z,1.60
2023-02-27T03:44:21.422Z,2.70
2023-02-27T03:45:39.280Z,1.50
2023-02-27T03:46:41.762Z,1.97
2023-02-27T03:47:43.492Z,1.53
2023-02-27T03:48:46.664Z,3.77
2023-02-27T03:49:51.180Z,2.40
2023-02-27T03:50:52.804Z,1.10
2023-02-27T03:51:54.685Z,1.50
2023-02-27T03:52:57.594Z,0.90
2023-02-27T03:54:07.582Z,1.53
2023-02-27T03:55:15.677Z,1.63
2023-02-27T03:56:24.122Z,2.63
2023-02-27T03:57:26.913Z,0.33
2023-02-27T03:58:29.018Z,1.00
2023-02-27T03:59:32.887Z,2.80
2023-02-27T04:00:34.898Z,1.33
2023-02-27T04:01:36.652Z,0.97
2023-02-27T04:02:39.916Z,1.43
2023-02-27T04:03:51.565Z,0.83
2023-02-27T04:04:53.108Z,1.50
2023-02-27T04:05:54.745Z,1.67
2023-02-27T04:07:23.789Z,2.17
2023-02-27T04:09:00.409Z,2.00
2023-02-27T04:10:46.989Z,3.67
2023-02-27T04:12:09.264Z,4.87
2023-02-27T04:13:13.841Z,3.33
2023-02-27T04:14:27.949Z,1.90
2023-02-27T04:15:29.557Z,3.50
2023-02-27T04:16:34.040Z,2.67
2023-02-27T04:17:56.191Z,2.57
2023-02-27T04:19:28.806Z,4.40
2023-02-27T04:20:43.230Z,3.63
2023-02-27T04:22:11.791Z,1.70
2023-02-27T04:23:20.967Z,3.20
2023-02-27T04:24:36.714Z,4.83
2023-02-27T04:26:05.434Z,3.00
2023-02-27T04:27:13.041Z,2.43
2023-02-27T04:28:25.338Z,1.37
2023-02-27T04:29:42.472Z,5.00
2023-02-27T04:30:59.288Z,1.23
2023-02-27T04:32:37.777Z,3.47
2023-02-27T04:33:49.268Z,2.27
2023-02-27T04:35:16.145Z,3.03
2023-02-27T04:36:36.050Z,4.17
2023-02-27T04:37:46.751Z,4.20
2023-02-27T04:38:57.118Z,3.40
2023-02-27T04:40:17.068Z,3.13
2023-02-27T04:41:23.549Z,2.77
2023-02-27T04:42:29.937Z,1.93
2023-02-27T04:43:34.707Z,2.93
2023-02-27T04:44:38.504Z,1.87
2023-02-27T04:45:41.616Z,4.63
2023-02-27T04:46:45.829Z,1.63
2023-02-27T04:47:52.974Z,1.60
2023-02-27T04:49:01.108Z,3.30
2023-02-27T04:50:12.603Z,1.90
2023-02-27T04:51:18.078Z,2.70
2023-02-27T04:52:35.954Z,5.60
2023-02-27T04:53:52.457Z,2.40
2023-02-27T04:55:06.005Z,4.40
2023-02-27T04:56:17.294Z,2.27
2023-02-27T04:57:24.822Z,1.43
2023-02-27T04:58:38.218Z,3.43
2023-02-27T04:59:52.779Z,3.57
2023-02-27T05:01:13.000Z,5.30
2023-02-27T05:02:33.304Z,3.17
2023-02-27T05:03:40.125Z,4.30
2023-02-27T05:04:45.071Z,6.30
2023-02-27T05:05:48.782Z,2.70
2023-02-27T05:06:54.304Z,4.57
2023-02-27T05:08:05.173Z,5.00
2023-02-27T05:09:14.026Z,2.43
2023-02-27T05:10:19.195Z,4.10
2023-02-27T05:11:26.916Z,5.53
2023-02-27T05:13:06.723Z,4.60
2023-02-27T05:14:17.203Z,7.97
2023-02-27T05:15:27.144Z,3.07
2023-02-27T05:16:40.025Z,1.73
2023-02-27T05:17:49.272Z,4.90
2023-02-27T05:18:51.350Z,3.13
2023-02-27T05:19:53.105Z,3.47
2023-02-27T05:21:08.006Z,4.20
2023-02-27T05:22:36.314Z,1.03
2023-02-27T05:23:47.735Z,3.37
2023-02-27T05:24:54.667Z,1.77
2023-02-27T05:26:15.434Z,1.07
2023-02-27T05:27:25.114Z,2.27
2023-02-27T05:28:33.676Z,3.00
2023-02-27T05:29:56.154Z,2.37
2023-02-27T05:31:04.326Z,2.60
2023-02-27T05:32:17.098Z,2.70
2023-02-27T05:33:27.637Z,5.13
2023-02-27T05:34:42.477Z,4.47
2023-02-27T05:36:10.480Z,5.17
2023-02-27T05:37:18.005Z,2.57
2023-02-27T05:38:25.916Z,3.90
2023-02-27T05:39:30.759Z,4.00
2023-02-27T05:40:45.365Z,3.23
2023-02-27T05:41:56.524Z,3.40
2023-02-27T05:43:06.364Z,2.40
2023-02-27T05:44:17.507Z,2.53
2023-02-27T05:45:27.281Z,4.00
2023-02-27T05:46:33.120Z,3.03
2023-02-27T05:47:38.971Z,3.23
2023-02-27T05:48:50.362Z,5.63
2023-02-27T05:50:11.643Z,4.27
2023-02-27T05:51:16.845Z,2.77
2023-02-27T05:52:23.308Z,7.43
2023-02-27T05:53:31.187Z,2.73
2023-02-27T05:54:41.919Z,3.70
2023-02-27T05:55:56.550Z,5.53
2023-02-27T05:56:59.816Z,2.20
2023-02-27T05:58:19.094Z,3.73
2023-02-27T05:59:39.286Z,3.83
2023-02-27T06:00:53.668Z,3.03
2023-02-27T06:01:55.808Z,4.53
2023-02-27T06:02:57.634Z,3.80
2023-02-27T06:03:59.289Z,5.07
2023-02-27T06:05:00.885Z,5.57
2023-02-27T06:06:06.293Z,3.77
2023-02-27T06:07:08.651Z,4.77
2023-02-27T06:08:11.133Z,5.10
2023-02-27T06:09:12.724Z,4.83
2023-02-27T06:10:16.560Z,4.33
2023-02-27T06:11:18.154Z,6.80
2023-02-27T06:12:19.655Z,6.17
2023-02-27T06:13:22.262Z,11.70
2023-02-27T06:14:23.820Z,13.33
2023-02-27T06:15:25.462Z,11.37
2023-02-27T06:16:27.662Z,12.00
2023-02-27T06:17:29.459Z,11.57
2023-02-27T06:18:31.062Z,10.67
2023-02-27T06:19:32.641Z,10.53
2023-02-27T06:20:34.465Z,12.80
2023-02-27T06:21:36.010Z,10.53
2023-02-27T06:22:37.604Z,11.57
2023-02-27T06:23:39.160Z,12.57
2023-02-27T06:24:40.745Z,11.07
2023-02-27T06:25:42.357Z,12.27
2023-02-27T06:26:44.030Z,10.73
2023-02-27T06:27:45.573Z,9.47
2023-02-27T06:28:47.124Z,8.67
2023-02-27T06:29:48.656Z,11.23
2023-02-27T06:30:57.312Z,11.10
2023-02-27T06:31:59.454Z,12.07
2023-02-27T06:33:01.159Z,13.00
2023-02-27T06:34:02.922Z,13.87
2023-02-27T06:35:06.313Z,11.73
2023-02-27T06:36:07.990Z,9.63
2023-02-27T06:37:09.574Z,14.10
2023-02-27T06:38:11.154Z,10.43
2023-02-27T06:39:12.923Z,12.07
2023-02-27T06:40:15.497Z,11.37
2023-02-27T06:41:17.068Z,14.77
2023-02-27T06:42:19.090Z,20.67
2023-02-27T06:43:23.169Z,21.57
2023-02-27T06:44:24.845Z,26.97
2023-02-27T06:45:26.537Z,22.13
2023-02-27T06:46:28.413Z,25.20
2023-02-27T06:47:30.236Z,22.13
2023-02-27T06:48:32.030Z,27.00
2023-02-27T06:49:33.601Z,29.83
2023-02-27T06:50:35.724Z,22.20
2023-02-27T06:51:37.337Z,26.50
2023-02-27T06:52:40.017Z,28.53
2023-02-27T06:53:41.738Z,33.90
2023-02-27T06:54:43.244Z,23.87
2023-02-27T06:55:44.799Z,23.57
2023-02-27T06:56:46.436Z,27.37
2023-02-27T06:57:48.335Z,20.17
2023-02-27T06:58:49.910Z,20.80
2023-02-27T06:59:51.696Z,18.50
2023-02-27T07:00:53.385Z,32.67
2023-02-27T07:01:55.203Z,20.90
2023-02-27T07:02:56.764Z,25.90
2023-02-27T07:03:58.394Z,26.30
2023-02-27T07:04:59.997Z,20.93
2023-02-27T07:06:03.490Z,17.50
2023-02-27T07:07:35.978Z,17.33
2023-02-27T07:08:26.919Z,17.17
2023-02-27T07:09:28.473Z,17.27
2023-02-27T07:10:30.262Z,19.50
2023-02-27T07:11:31.817Z,18.63
2023-02-27T07:12:33.373Z,19.00
2023-02-27T07:13:35.057Z,19.40
2023-02-27T07:14:36.597Z,17.97
2023-02-27T07:15:38.271Z,18.63
2023-02-27T07:16:40.459Z,11.77
2023-02-27T07:17:42.085Z,14.97
2023-02-27T07:18:43.636Z,14.50
2023-02-27T07:19:45.570Z,14.47
2023-02-27T07:20:51.163Z,15.50
2023-02-27T07:21:52.683Z,14.13
2023-02-27T07:22:54.251Z,13.73
2023-02-27T07:23:55.837Z,14.40
2023-02-27T07:24:57.448Z,16.60
2023-02-27T07:25:59.021Z,16.03
2023-02-27T07:27:00.562Z,12.80
2023-02-27T07:28:02.576Z,13.67
2023-02-27T07:29:05.177Z,11.63
2023-02-27T07:30:07.443Z,12.67
2023-02-27T07:31:09.086Z,14.53
2023-02-27T07:32:11.329Z,13.70
2023-02-27T07:33:13.079Z,15.50
2023-02-27T07:34:15.651Z,14.70
2023-02-27T07:35:17.215Z,14.17
2023-02-27T07:36:18.841Z,17.40
2023-02-27T07:37:20.512Z,12.63
2023-02-27T07:38:24.021Z,16.13
2023-02-27T07:39:25.663Z,17.40
2023-02-27T07:40:27.376Z,16.43
2023-02-27T07:41:31.138Z,9.47
2023-02-27T07:42:33.004Z,13.00
2023-02-27T07:43:34.571Z,16.57
2023-02-27T07:44:36.293Z,14.73
2023-02-27T07:45:37.926Z,14.73
2023-02-27T07:46:39.541Z,15.60
2023-02-27T07:47:41.137Z,22.70
2023-02-27T07:48:42.707Z,14.80
2023-02-27T07:49:44.324Z,14.20
2023-02-27T07:50:45.891Z,14.07
2023-02-27T07:51:48.422Z,13.83
2023-02-27T07:52:52.025Z,11.67
2023-02-27T07:53:53.598Z,13.13
2023-02-27T07:54:55.153Z,12.80
2023-02-27T07:55:56.758Z,11.10
2023-02-27T07:56:58.470Z,10.90
2023-02-27T07:58:00.045Z,11.17
2023-02-27T07:59:01.858Z,13.57
2023-02-27T08:00:07.986Z,12.70
2023-02-27T08:01:09.537Z,11.77
2023-02-27T08:02:12.660Z,11.90
2023-02-27T08:03:14.384Z,14.63
2023-02-27T08:04:16.239Z,16.00
2023-02-27T08:05:18.021Z,15.33
2023-02-27T08:06:19.705Z,21.27
2023-02-27T08:07:21.293Z,21.47
2023-02-27T08:08:22.888Z,15.37
2023-02-27T08:09:24.563Z,13.63
2023-02-27T08:10:26.730Z,20.73
2023-02-27T08:11:28.628Z,20.60
2023-02-27T08:12:30.388Z,20.30
2023-02-27T08:13:59.001Z,26.03
2023-02-27T08:14:53.447Z,25.77
2023-02-27T08:15:55.050Z,21.03
2023-02-27T08:16:56.784Z,18.87
2023-02-27T08:17:58.589Z,24.23
2023-02-27T08:19:00.800Z,17.00
2023-02-27T08:20:02.534Z,18.53
2023-02-27T08:21:05.136Z,15.07
2023-02-27T08:22:07.506Z,17.37
2023-02-27T08:23:09.690Z,9.40
2023-02-27T08:24:11.208Z,12.87
2023-02-27T08:25:12.785Z,11.00
2023-02-27T08:26:14.883Z,15.10
2023-02-27T08:27:16.407Z,14.57
2023-02-27T08:28:18.335Z,14.67
2023-02-27T08:29:19.996Z,16.00
2023-02-27T08:30:21.697Z,13.60
2023-02-27T08:31:23.661Z,13.47
2023-02-27T08:32:25.467Z,15.53
2023-02-27T08:33:27.164Z,9.10
2023-02-27T08:34:30.302Z,10.30
2023-02-27T08:35:31.907Z,13.87
2023-02-27T08:36:33.627Z,10.47
2023-02-27T08:37:35.619Z,9.97
2023-02-27T08:38:37.238Z,8.57
2023-02-27T08:39:38.879Z,11.40
2023-02-27T08:40:40.475Z,10.50
2023-02-27T08:41:42.058Z,7.20
2023-02-27T08:42:43.600Z,9.27
2023-02-27T08:43:45.139Z,9.37
2023-02-27T08:44:46.657Z,12.20
2023-02-27T08:45:49.385Z,9.63
2023-02-27T08:46:50.995Z,9.60
2023-02-27T08:47:52.714Z,7.97
2023-02-27T08:48:54.873Z,8.80
2023-02-27T08:49:56.796Z,10.77
2023-02-27T08:50:58.408Z,6.30
2023-02-27T08:52:01.165Z,9.87
2023-02-27T08:53:02.731Z,6.87
2023-02-27T08:54:04.409Z,9.90
2023-02-27T08:55:06.641Z,8.57
2023-02-27T08:56:08.340Z,14.53
2023-02-27T08:57:09.885Z,13.87
2023-02-27T08:58:11.418Z,13.00
2023-02-27T08:59:13.167Z,13.70
2023-02-27T09:00:15.359Z,14.17
2023-02-27T09:01:17.024Z,12.50
2023-02-27T09:02:18.597Z,13.43
2023-02-27T09:03:21.404Z,18.53
2023-02-27T09:04:22.975Z,12.07
2023-02-27T09:05:24.589Z,11.40
2023-02-27T09:06:26.579Z,15.13
2023-02-27T09:07:28.181Z,12.93
2023-02-27T09:08:29.942Z,11.73
2023-02-27T09:09:31.877Z,13.93
2023-02-27T09:10:33.945Z,16.03
2023-02-27T09:11:37.471Z,20.07
2023-02-27T09:12:40.448Z,20.53
2023-02-27T09:13:42.235Z,26.03
2023-02-27T09:14:43.824Z,25.97
2023-02-27T09:15:47.859Z,20.93
2023-02-27T09:16:49.571Z,24.67
2023-02-27T09:17:51.565Z,29.83
2023-02-27T09:18:54.073Z,35.90
2023-02-27T09:19:57.425Z,26.93
2023-02-27T09:21:00.048Z,31.07
2023-02-27T09:22:01.865Z,29.93
2023-02-27T09:23:04.308Z,23.83
2023-02-27T09:24:18.754Z,25.93
2023-02-27T09:25:24.132Z,35.63
2023-02-27T09:26:40.721Z,29.53
2023-02-27T09:27:45.193Z,33.13
2023-02-27T09:28:46.801Z,42.77
2023-02-27T09:29:48.985Z,42.57
2023-02-27T09:30:50.719Z,34.20
2023-02-27T09:31:52.411Z,23.30
2023-02-27T09:32:54.070Z,36.03
2023-02-27T09:33:57.354Z,28.37
2023-02-27T09:34:59.196Z,31.67
2023-02-27T09:36:00.832Z,32.37
2023-02-27T09:37:02.556Z,30.33
2023-02-27T09:38:04.313Z,24.87
2023-02-27T09:39:05.872Z,34.20
2023-02-27T09:40:11.892Z,32.70
2023-02-27T09:41:44.008Z,32.47
2023-02-27T09:42:47.758Z,32.10
2023-02-27T09:43:51.753Z,35.63
2023-02-27T09:44:57.658Z,32.00
2023-02-27T09:46:01.995Z,28.70
2023-02-27T09:47:13.206Z,24.43
2023-02-27T09:48:32.237Z,26.17
2023-02-27T09:49:49.475Z,31.30
2023-02-27T09:50:52.663Z,30.03
2023-02-27T09:51:54.334Z,30.03
2023-02-27T09:52:57.145Z,25.57
2023-02-27T09:54:01.228Z,29.47
2023-02-27T09:55:06.522Z,30.57
2023-02-27T09:56:22.496Z,24.47
2023-02-27T09:57:48.235Z,40.40
2023-02-27T09:59:19.603Z,28.90
2023-02-27T10:00:30.441Z,26.67
2023-02-27T10:01:42.267Z,35.77
2023-02-27T10:02:49.502Z,20.70
2023-02-27T10:04:02.995Z,29.20
2023-02-27T10:05:35.709Z,26.30
2023-02-27T10:06:44.288Z,27.77
2023-02-27T10:08:03.124Z,36.87
2023-02-27T10:09:39.954Z,16.53
2023-02-27T10:11:05.888Z,29.57
2023-02-27T10:12:32.336Z,22.03
2023-02-27T10:13:50.929Z,32.27
2023-02-27T10:14:58.860Z,27.77
2023-02-27T10:16:03.566Z,24.03
2023-02-27T10:17:28.449Z,19.27
2023-02-27T10:18:52.251Z,36.07
2023-02-27T10:19:55.132Z,19.43
2023-02-27T10:21:04.363Z,30.10
2023-02-27T10:22:12.872Z,28.00
2023-02-27T10:23:19.111Z,21.67
2023-02-27T10:24:33.934Z,32.83
2023-02-27T10:25:43.602Z,25.00
2023-02-27T10:26:45.994Z,22.43
2023-02-27T10:27:50.010Z,27.17
2023-02-27T10:28:51.622Z,26.33
2023-02-27T10:30:01.646Z,25.83
2023-02-27T10:31:15.812Z,22.80
2023-02-27T10:32:31.802Z,31.63
2023-02-27T10:33:37.281Z,25.03
2023-02-27T10:34:42.166Z,20.50
2023-02-27T10:35:45.291Z,26.60
2023-02-27T10:36:47.597Z,19.30
2023-02-27T10:37:54.103Z,25.27
2023-02-27T10:38:59.846Z,32.80
2023-02-27T10:40:06.780Z,26.37
2023-02-27T10:41:12.884Z,22.20
2023-02-27T10:42:16.386Z,28.97
2023-02-27T10:43:19.264Z,22.87
2023-02-27T10:44:21.038Z,25.50
2023-02-27T10:45:22.915Z,26.10
2023-02-27T10:46:34.266Z,28.87
2023-02-27T10:47:38.877Z,26.87
2023-02-27T10:48:40.920Z,29.23
2023-02-27T10:49:43.974Z,36.77
2023-02-27T10:50:52.086Z,23.53
2023-02-27T10:52:11.646Z,33.83
2023-02-27T10:53:24.894Z,27.63
2023-02-27T10:54:26.464Z,38.33
2023-02-27T10:55:34.058Z,33.67
2023-02-27T10:56:35.830Z,34.83
2023-02-27T10:57:42.283Z,37.67
2023-02-27T10:58:43.894Z,31.47
2023-02-27T10:59:52.368Z,27.80
2023-02-27T11:00:57.021Z,37.23
2023-02-27T11:02:06.087Z,40.83
2023-02-27T11:03:24.861Z,42.03
2023-02-27T11:04:26.453Z,31.33
2023-02-27T11:05:36.867Z,23.77
2023-02-27T11:06:39.123Z,31.73
2023-02-27T11:07:40.734Z,35.17
2023-02-27T11:08:43.632Z,36.30
2023-02-27T11:10:00.113Z,39.27
2023-02-27T11:11:05.099Z,44.53
2023-02-27T11:12:19.098Z,42.47
2023-02-27T11:13:22.683Z,45.03
2023-02-27T11:14:31.013Z,38.50
2023-02-27T11:15:38.278Z,41.60
2023-02-27T11:16:50.825Z,38.63
2023-02-27T11:17:53.270Z,38.07
2023-02-27T11:18:55.809Z,48.33
2023-02-27T11:19:58.853Z,42.03
2023-02-27T11:21:14.187Z,38.20
2023-02-27T11:22:18.652Z,39.00
2023-02-27T11:23:23.475Z,40.60
2023-02-27T11:24:25.053Z,38.13
2023-02-27T11:25:26.565Z,38.73
2023-02-27T11:26:33.220Z,40.37
2023-02-27T11:27:34.818Z,41.63
2023-02-27T11:28:36.359Z,49.97
2023-02-27T11:29:38.038Z,45.37
2023-02-27T11:30:39.622Z,47.57
2023-02-27T11:31:50.803Z,42.13
2023-02-27T11:32:54.410Z,43.53
2023-02-27T11:33:57.950Z,48.10
2023-02-27T11:34:59.681Z,40.30
2023-02-27T11:36:02.881Z,36.57
2023-02-27T11:37:36.744Z,35.87
2023-02-27T11:38:38.608Z,38.10
2023-02-27T11:40:08.924Z,32.67
2023-02-27T11:41:11.079Z,34.30
2023-02-27T11:42:18.547Z,42.40
2023-02-27T11:43:24.181Z,46.57
2023-02-27T11:44:49.723Z,42.77
2023-02-27T11:46:44.802Z,36.37
2023-02-27T11:47:48.545Z,54.27
2023-02-27T11:49:00.018Z,49.57
2023-02-27T11:50:23.265Z,40.80
2023-02-27T11:51:49.943Z,51.87
2023-02-27T11:53:21.658Z,42.27
2023-02-27T11:54:45.494Z,44.97
2023-02-27T11:55:49.368Z,49.97
2023-02-27T11:56:56.415Z,45.07
2023-02-27T11:58:26.840Z,44.80
2023-02-27T11:59:50.680Z,46.20
2023-02-27T12:01:01.537Z,46.20
2023-02-27T12:02:18.739Z,44.83
2023-02-27T12:03:40.920Z,42.30
2023-02-27T12:05:24.092Z,45.90
2023-02-27T12:06:46.756Z,46.37
2023-02-27T12:08:26.967Z,47.00
2023-02-27T12:09:42.762Z,49.70
2023-02-27T12:11:12.471Z,48.53
2023-02-27T12:12:33.327Z,49.53
2023-02-27T12:13:40.661Z,48.27
2023-02-27T12:14:42.204Z,43.10
2023-02-27T12:16:12.162Z,45.50
2023-02-27T12:17:40.614Z,35.73
2023-02-27T12:18:47.901Z,44.60
2023-02-27T12:20:01.344Z,40.83
2023-02-27T12:21:20.287Z,46.83
2023-02-27T12:22:26.699Z,49.13
2023-02-27T12:23:50.246Z,49.27
2023-02-27T12:24:57.665Z,47.60
2023-02-27T12:26:25.954Z,55.70
2023-02-27T12:27:46.759Z,38.57
2023-02-27T12:28:52.956Z,37.20
2023-02-27T12:30:02.760Z,37.27
2023-02-27T12:31:35.324Z,49.77
2023-02-27T12:33:02.424Z,34.27
2023-02-27T12:34:32.009Z,47.57
2023-02-27T12:35:33.906Z,36.70
2023-02-27T12:36:35.578Z,46.03
2023-02-27T12:37:38.047Z,52.97
2023-02-27T12:38:40.152Z,43.03
2023-02-27T12:39:45.105Z,40.50
2023-02-27T12:40:52.878Z,37.50
2023-02-27T12:42:33.241Z,47.13
2023-02-27T12:44:27.084Z,57.73
2023-02-27T12:45:51.568Z,37.90
2023-02-27T12:46:53.078Z,47.67
2023-02-27T12:48:03.634Z,41.73
2023-02-27T12:49:20.381Z,46.20
2023-02-27T12:50:24.680Z,52.43
2023-02-27T12:51:29.634Z,50.53
2023-02-27T12:52:49.810Z,42.63
2023-02-27T12:54:10.345Z,34.97
2023-02-27T12:55:18.144Z,49.27
2023-02-27T12:56:23.447Z,50.33
2023-02-27T12:57:31.341Z,51.17
2023-02-27T12:59:02.165Z,45.97
2023-02-27T13:00:15.053Z,39.57
2023-02-27T13:01:37.172Z,47.00
2023-02-27T13:02:47.592Z,56.07
2023-02-27T13:04:04.450Z,46.63
2023-02-27T13:05:37.251Z,32.70
2023-02-27T13:06:51.808Z,49.27
2023-02-27T13:08:11.588Z,41.63
2023-02-27T13:09:42.244Z,47.20
2023-02-27T13:10:50.395Z,52.80
2023-02-27T13:12:01.012Z,47.23
2023-02-27T13:13:22.826Z,49.00
2023-02-27T13:14:48.023Z,42.10
2023-02-27T13:16:00.778Z,30.30
2023-02-27T13:17:18.850Z,43.17
2023-02-27T13:18:38.750Z,38.30
2023-02-27T13:19:58.256Z,28.63
2023-02-27T13:21:05.374Z,30.13
2023-02-27T13:22:14.364Z,35.10
2023-02-27T13:23:23.000Z,24.07
2023-02-27T13:24:27.894Z,33.57
2023-02-27T13:25:30.720Z,26.17
2023-02-27T13:26:39.289Z,22.40
2023-02-27T13:28:02.679Z,39.60
2023-02-27T13:29:05.930Z,27.83
2023-02-27T13:30:13.980Z,26.83
2023-02-27T13:31:23.196Z,24.83
2023-02-27T13:32:42.790Z,29.43
2023-02-27T13:34:00.159Z,34.93
2023-02-27T13:35:13.739Z,28.37
2023-02-27T13:36:42.499Z,35.90
2023-02-27T13:37:50.920Z,30.03
2023-02-27T13:38:54.784Z,43.87
2023-02-27T13:39:56.441Z,31.33
2023-02-27T13:40:58.299Z,40.90
2023-02-27T13:41:59.844Z,32.90
2023-02-27T13:43:24.487Z,33.10
2023-02-27T13:44:26.966Z,25.00
2023-02-27T13:45:54.889Z,27.33
2023-02-27T13:47:31.259Z,34.50
2023-02-27T13:48:42.006Z,22.47
2023-02-27T13:49:43.795Z,25.87
2023-02-27T13:50:50.390Z,32.03
2023-02-27T13:51:53.817Z,37.87
2023-02-27T13:52:55.450Z,35.53
2023-02-27T13:54:15.021Z,32.37
2023-02-27T13:55:27.761Z,30.30
2023-02-27T13:56:29.437Z,31.90
2023-02-27T13:57:35.160Z,34.97
2023-02-27T13:58:44.231Z,32.87
2023-02-27T13:59:53.869Z,40.73
2023-02-27T14:00:59.122Z,37.30
2023-02-27T14:02:04.853Z,34.37
2023-02-27T14:03:23.985Z,44.97
2023-02-27T14:04:29.655Z,46.80
2023-02-27T14:05:31.314Z,37.07
2023-02-27T14:06:33.276Z,34.80
2023-02-27T14:07:55.386Z,43.10
2023-02-27T14:09:12.897Z,34.53
2023-02-27T14:10:29.393Z,30.67
2023-02-27T14:11:39.700Z,38.13
2023-02-27T14:12:45.867Z,44.10
2023-02-27T14:13:50.631Z,36.03
2023-02-27T14:14:53.083Z,45.53
2023-02-27T14:15:57.804Z,45.37
2023-02-27T14:17:01.327Z,33.90
2023-02-27T14:18:14.207Z,41.63
2023-02-27T14:19:21.014Z,47.80
2023-02-27T14:20:27.423Z,42.67
2023-02-27T14:21:51.020Z,37.93
2023-02-27T14:23:17.260Z,43.97
2023-02-27T14:24:21.760Z,47.10
2023-02-27T14:25:36.988Z,39.97
2023-02-27T14:26:39.985Z,50.03
2023-02-27T14:27:44.324Z,34.90
2023-02-27T14:28:54.022Z,36.13
2023-02-27T14:30:00.671Z,37.17
2023-02-27T14:31:06.411Z,41.03
2023-02-27T14:32:08.695Z,48.27
2023-02-27T14:33:45.934Z,41.43
2023-02-27T14:34:48.202Z,43.57
2023-02-27T14:36:05.968Z,49.97
2023-02-27T14:37:13.854Z,35.63
2023-02-27T14:38:19.363Z,47.40
2023-02-27T14:39:25.811Z,44.53
2023-02-27T14:40:36.088Z,50.27
2023-02-27T14:41:55.813Z,37.93
2023-02-27T14:43:09.336Z,49.07
2023-02-27T14:44:28.661Z,46.07
2023-02-27T14:45:31.457Z,42.77